Time;durP1;ratioP1;P1;durP2;ratioP2;P2;SDS_P1;SDS_P2;PMS_P1;PMS_P2;Temp;Humidity;BMP_temperature;BMP_pressure;BME280_temperature;BME280_humidity;BME280_pressure;Samples;Min_cycle;Max_cycle;Signal;HPM_P1;HPM_P2
2024/02/28 00:01:20;;;;;;;21.05;13.38;;;;;;;;;;4966400;28;20026;-85
2024/02/28 00:04:05;;;;;;;23.00;15.02;;;;;;;;;;4972347;28;20041;-84
2024/02/28 00:06:50;;;;;;;21.10;13.52;;;;;;;;;;4967166;28;20021;-83
2024/02/28 00:09:36;;;;;;;23.05;13.75;;;;;;;;;;4964721;28;20037;-85
2024/02/28 00:12:22;;;;;;;20.30;13.77;;;;;;;;;;4971380;28;20058;-85
2024/02/28 00:15:10;;;;;;;19.70;13.32;;;;;;;;;;4973211;28;20133;-84
2024/02/28 00:17:55;;;;;;;21.25;13.70;;;;;;;;;;4966557;28;20061;-84
2024/02/28 00:20:41;;;;;;;21.50;14.23;;;;;;;;;;4960982;28;20078;-84
2024/02/28 00:23:26;;;;;;;20.67;13.30;;;;;;;;;;4968535;28;20460;-84
2024/02/28 00:26:14;;;;;;;20.88;13.77;;;;;;;;;;4971080;28;20035;-85
2024/02/28 00:28:59;;;;;;;21.08;13.30;;;;;;;;;;4965672;28;20113;-85
2024/02/28 00:31:45;;;;;;;21.60;14.15;;;;;;;;;;4975035;28;20292;-85
2024/02/28 00:34:30;;;;;;;20.23;13.55;;;;;;;;;;4973754;28;20030;-83
2024/02/28 00:37:16;;;;;;;18.30;13.02;;;;;;;;;;4971311;28;20026;-85
2024/02/28 00:40:01;;;;;;;21.17;14.52;;;;;;;;;;4975383;28;20519;-85
2024/02/28 00:42:46;;;;;;;20.88;13.93;;;;;;;;;;4968376;28;20049;-86
2024/02/28 00:45:32;;;;;;;20.25;13.80;;;;;;;;;;4971220;28;20048;-85
2024/02/28 00:48:17;;;;;;;24.20;14.55;;;;;;;;;;4974087;28;20469;-86
2024/02/28 00:51:03;;;;;;;20.88;13.43;;;;;;;;;;4971274;28;20030;-85
2024/02/28 00:53:49;;;;;;;19.98;12.85;;;;;;;;;;4969553;28;20023;-85
2024/02/28 00:56:34;;;;;;;21.38;13.40;;;;;;;;;;4974610;28;20027;-85
2024/02/28 00:59:19;;;;;;;21.52;13.77;;;;;;;;;;4970174;28;20397;-83
2024/02/28 01:02:05;;;;;;;19.38;12.93;;;;;;;;;;4967960;28;20065;-84
2024/02/28 01:04:50;;;;;;;21.63;14.48;;;;;;;;;;4983029;28;20478;-85
2024/02/28 01:07:36;;;;;;;23.67;14.90;;;;;;;;;;4966933;28;20037;-84
2024/02/28 01:10:21;;;;;;;20.77;14.30;;;;;;;;;;4966435;28;20422;-83
2024/02/28 01:13:07;;;;;;;21.77;14.23;;;;;;;;;;4970620;28;20104;-84
2024/02/28 01:15:52;;;;;;;20.40;13.07;;;;;;;;;;4968414;28;20021;-84
2024/02/28 01:18:37;;;;;;;25.00;15.88;;;;;;;;;;4969677;28;20432;-85
2024/02/28 01:21:23;;;;;;;20.73;13.88;;;;;;;;;;4978464;28;20033;-84
2024/02/28 01:24:08;;;;;;;24.92;15.75;;;;;;;;;;4973899;28;20023;-83
2024/02/28 01:26:54;;;;;;;23.15;14.85;;;;;;;;;;4975883;28;20030;-83
2024/02/28 01:29:39;;;;;;;23.73;15.65;;;;;;;;;;4967056;28;20038;-84
2024/02/28 01:32:24;;;;;;;23.10;15.40;;;;;;;;;;4972377;28;20031;-83
2024/02/28 01:35:09;;;;;;;25.40;15.70;;;;;;;;;;4970378;28;20110;-83
2024/02/28 01:37:55;;;;;;;23.58;15.70;;;;;;;;;;4974577;28;20294;-83
2024/02/28 01:40:46;;;;;;;22.02;15.05;;;;;;;;;;4978172;28;20436;-82
2024/02/28 01:43:32;;;;;;;23.05;14.68;;;;;;;;;;4968865;28;20932;-83
2024/02/28 01:46:25;;;;;;;24.00;15.70;;;;;;;;;;4972921;28;20417;-83
2024/02/28 01:49:11;;;;;;;24.42;15.63;;;;;;;;;;4961904;28;20026;-83
2024/02/28 01:51:57;;;;;;;24.45;15.55;;;;;;;;;;4967143;28;20046;-82
2024/02/28 01:54:42;;;;;;;27.30;17.08;;;;;;;;;;4966634;28;20542;-84
2024/02/28 01:57:28;;;;;;;26.60;16.50;;;;;;;;;;4983078;28;20099;-84
2024/02/28 02:00:15;;;;;;;24.02;15.57;;;;;;;;;;4980106;28;20014;-84
2024/02/28 02:03:01;;;;;;;23.52;16.02;;;;;;;;;;4966532;28;20030;-83
2024/02/28 02:05:54;;;;;;;22.80;15.63;;;;;;;;;;4994389;28;20022;-85
2024/02/28 02:08:49;;;;;;;27.38;16.10;;;;;;;;;;4985316;28;20559;-84
2024/02/28 02:11:35;;;;;;;25.65;15.68;;;;;;;;;;4988781;28;20030;-84
2024/02/28 02:14:20;;;;;;;24.58;14.63;;;;;;;;;;4967322;28;20055;-85
2024/02/28 02:17:08;;;;;;;24.40;15.18;;;;;;;;;;4994786;28;20030;-84
2024/02/28 02:19:53;;;;;;;24.77;15.75;;;;;;;;;;4975901;28;20488;-85
2024/02/28 02:22:39;;;;;;;24.52;15.23;;;;;;;;;;4959368;28;20409;-85
2024/02/28 02:25:26;;;;;;;21.10;14.02;;;;;;;;;;4966038;28;20033;-84
2024/02/28 02:28:12;;;;;;;24.55;15.18;;;;;;;;;;4980086;28;20026;-84
2024/02/28 02:30:57;;;;;;;22.52;15.02;;;;;;;;;;4973126;28;20042;-83
2024/02/28 02:33:42;;;;;;;23.23;14.90;;;;;;;;;;4988699;28;20034;-83
2024/02/28 02:36:27;;;;;;;23.63;15.48;;;;;;;;;;4984050;28;20031;-83
2024/02/28 02:39:13;;;;;;;26.77;16.23;;;;;;;;;;4974854;28;20086;-84
2024/02/28 02:41:58;;;;;;;22.75;14.20;;;;;;;;;;4976212;28;20113;-84
2024/02/28 02:44:43;;;;;;;23.67;15.05;;;;;;;;;;4972395;28;20029;-84
2024/02/28 02:47:30;;;;;;;22.42;14.52;;;;;;;;;;4970039;28;20660;-84
2024/02/28 02:50:16;;;;;;;22.65;14.10;;;;;;;;;;4971850;28;20038;-83
2024/02/28 02:53:02;;;;;;;24.45;14.02;;;;;;;;;;4966427;28;20034;-84
2024/02/28 02:55:47;;;;;;;22.55;15.80;;;;;;;;;;4971159;28;20022;-83
2024/02/28 02:58:33;;;;;;;23.27;15.90;;;;;;;;;;4973023;28;20027;-83
2024/02/28 03:01:19;;;;;;;22.25;14.18;;;;;;;;;;4979102;28;20062;-81
2024/02/28 03:04:05;;;;;;;24.33;15.60;;;;;;;;;;4975615;28;20033;-83
2024/02/28 03:06:50;;;;;;;23.80;14.85;;;;;;;;;;4974226;28;20164;-84
2024/02/28 03:09:35;;;;;;;22.73;14.55;;;;;;;;;;4976775;28;20503;-83
2024/02/28 03:12:21;;;;;;;24.60;15.88;;;;;;;;;;4973621;28;20492;-84
2024/02/28 03:15:07;;;;;;;26.88;16.23;;;;;;;;;;4971864;28;20026;-84
2024/02/28 03:17:53;;;;;;;22.75;16.02;;;;;;;;;;4977410;28;20034;-86
2024/02/28 03:20:39;;;;;;;26.83;16.33;;;;;;;;;;4961625;28;20032;-84
2024/02/28 03:23:24;;;;;;;29.15;17.75;;;;;;;;;;4969789;28;20022;-83
2024/02/28 03:26:09;;;;;;;27.33;14.38;;;;;;;;;;4972293;28;20029;-84
2024/02/28 03:28:54;;;;;;;24.40;15.35;;;;;;;;;;4976165;28;20504;-83
2024/02/28 03:31:40;;;;;;;25.58;14.90;;;;;;;;;;4980461;28;20026;-82
2024/02/28 03:34:25;;;;;;;22.23;15.07;;;;;;;;;;4994582;28;20054;-83
2024/02/28 03:37:10;;;;;;;21.83;15.05;;;;;;;;;;4979627;28;20033;-83
2024/02/28 03:39:56;;;;;;;22.85;13.82;;;;;;;;;;4972305;28;20038;-83
2024/02/28 03:42:41;;;;;;;25.40;15.45;;;;;;;;;;4972755;28;20023;-83
2024/02/28 03:45:27;;;;;;;23.95;15.88;;;;;;;;;;4979300;28;20023;-83
2024/02/28 03:48:12;;;;;;;23.33;15.02;;;;;;;;;;4977265;28;20026;-83
2024/02/28 03:50:58;;;;;;;21.67;14.80;;;;;;;;;;4984282;28;20088;-83
2024/02/28 03:53:43;;;;;;;27.48;15.57;;;;;;;;;;4975032;28;20428;-83
2024/02/28 03:56:28;;;;;;;27.27;16.63;;;;;;;;;;4977046;28;20038;-83
2024/02/28 03:59:13;;;;;;;26.48;16.75;;;;;;;;;;4980605;28;20381;-83
2024/02/28 04:01:59;;;;;;;23.88;15.23;;;;;;;;;;4977668;28;20029;-82
2024/02/28 04:04:44;;;;;;;26.83;16.58;;;;;;;;;;4974360;28;20679;-84
2024/02/28 04:07:29;;;;;;;22.95;15.15;;;;;;;;;;4958831;28;20381;-83
2024/02/28 04:10:15;;;;;;;26.50;16.23;;;;;;;;;;4974197;28;20026;-83
2024/02/28 04:13:00;;;;;;;24.48;14.50;;;;;;;;;;4977441;28;20101;-83
2024/02/28 04:15:46;;;;;;;24.95;15.85;;;;;;;;;;4966879;28;20029;-82
2024/02/28 04:18:32;;;;;;;23.70;14.63;;;;;;;;;;4971582;28;20034;-83
2024/02/28 04:21:18;;;;;;;24.95;15.38;;;;;;;;;;4968710;28;20432;-84
2024/02/28 04:24:04;;;;;;;23.05;14.35;;;;;;;;;;4968459;28;20114;-84
2024/02/28 04:26:49;;;;;;;23.08;14.52;;;;;;;;;;4958837;28;20429;-84
2024/02/28 04:29:35;;;;;;;22.67;14.10;;;;;;;;;;4967782;28;20033;-83
2024/02/28 04:32:20;;;;;;;21.13;13.70;;;;;;;;;;4970652;28;20030;-84
2024/02/28 04:35:06;;;;;;;24.23;14.95;;;;;;;;;;4976157;28;20081;-84
2024/02/28 04:37:51;;;;;;;22.52;15.20;;;;;;;;;;4964133;28;20030;-84
2024/02/28 04:40:37;;;;;;;22.52;15.57;;;;;;;;;;4974228;28;20057;-84
2024/02/28 04:43:22;;;;;;;24.73;15.55;;;;;;;;;;4972951;28;20026;-83
2024/02/28 04:46:07;;;;;;;21.80;15.25;;;;;;;;;;4967982;28;20416;-83
2024/02/28 04:48:53;;;;;;;24.38;15.15;;;;;;;;;;4968811;28;20054;-83
2024/02/28 04:51:38;;;;;;;21.95;14.00;;;;;;;;;;4955445;28;20080;-83
2024/02/28 04:54:23;;;;;;;28.67;16.17;;;;;;;;;;4968253;28;20488;-84
2024/02/28 04:57:10;;;;;;;23.75;15.10;;;;;;;;;;4968164;28;20153;-84
2024/02/28 04:59:55;;;;;;;24.38;15.23;;;;;;;;;;4964563;28;20084;-84
2024/02/28 05:02:40;;;;;;;23.05;14.85;;;;;;;;;;4965005;28;20022;-84
2024/02/28 05:05:25;;;;;;;21.15;13.40;;;;;;;;;;4968291;28;20165;-83
2024/02/28 05:08:11;;;;;;;24.30;15.88;;;;;;;;;;4974052;28;20030;-83
2024/02/28 05:10:56;;;;;;;22.00;15.73;;;;;;;;;;4973561;28;20739;-84
2024/02/28 05:13:41;;;;;;;21.00;14.02;;;;;;;;;;4978133;28;20054;-85
2024/02/28 05:16:27;;;;;;;23.23;14.68;;;;;;;;;;4970516;28;20030;-84
2024/02/28 05:19:13;;;;;;;23.70;14.80;;;;;;;;;;4961681;28;20037;-80
2024/02/28 05:21:58;;;;;;;21.10;13.50;;;;;;;;;;4975117;28;20050;-80
2024/02/28 05:24:45;;;;;;;23.17;14.38;;;;;;;;;;4965528;28;20553;-80
2024/02/28 05:27:31;;;;;;;25.38;16.77;;;;;;;;;;4956818;28;20057;-80
2024/02/28 05:30:16;;;;;;;23.05;15.43;;;;;;;;;;4966844;28;20046;-80
2024/02/28 05:33:01;;;;;;;25.05;15.75;;;;;;;;;;4967177;28;20034;-80
2024/02/28 05:35:46;;;;;;;21.58;15.13;;;;;;;;;;4964658;28;20037;-82
2024/02/28 05:38:32;;;;;;;22.88;15.30;;;;;;;;;;4964419;28;20124;-82
2024/02/28 05:41:17;;;;;;;22.67;14.10;;;;;;;;;;4967740;28;20034;-81
2024/02/28 05:44:03;;;;;;;23.38;15.45;;;;;;;;;;4966412;28;20030;-81
2024/02/28 05:46:48;;;;;;;23.00;15.15;;;;;;;;;;4966366;28;20022;-83
2024/02/28 05:49:33;;;;;;;25.55;16.17;;;;;;;;;;4978634;28;20647;-83
2024/02/28 05:52:18;;;;;;;22.48;14.45;;;;;;;;;;4975798;28;20022;-84
2024/02/28 05:55:04;;;;;;;22.25;14.85;;;;;;;;;;4977857;28;20030;-80
2024/02/28 05:57:49;;;;;;;19.38;13.13;;;;;;;;;;4969377;28;20394;-82
2024/02/28 06:00:35;;;;;;;21.85;14.40;;;;;;;;;;4963976;28;20517;-82
2024/02/28 06:03:21;;;;;;;25.80;15.80;;;;;;;;;;4980601;28;20045;-82
2024/02/28 06:06:07;;;;;;;21.40;14.88;;;;;;;;;;4965795;28;20079;-83
2024/02/28 06:08:52;;;;;;;23.88;14.93;;;;;;;;;;4969040;28;20073;-82
2024/02/28 06:11:37;;;;;;;25.10;16.35;;;;;;;;;;4980631;28;20088;-83
2024/02/28 06:14:23;;;;;;;23.52;15.18;;;;;;;;;;4974404;28;20042;-81
2024/02/28 06:17:08;;;;;;;24.15;15.48;;;;;;;;;;4969405;28;20114;-83
2024/02/28 06:19:53;;;;;;;23.20;15.25;;;;;;;;;;4972925;28;20429;-82
2024/02/28 06:22:39;;;;;;;24.08;15.57;;;;;;;;;;4968224;28;20077;-86
2024/02/28 06:25:24;;;;;;;29.45;16.00;;;;;;;;;;4975611;28;20029;-86
2024/02/28 06:28:10;;;;;;;24.08;15.73;;;;;;;;;;4982651;28;20113;-85
2024/02/28 06:30:55;;;;;;;24.23;14.60;;;;;;;;;;4967351;28;20148;-85
2024/02/28 06:33:40;;;;;;;22.27;14.98;;;;;;;;;;4962746;28;20038;-87
2024/02/28 06:36:25;;;;;;;21.38;14.73;;;;;;;;;;4967872;28;20125;-86
2024/02/28 06:39:11;;;;;;;26.48;16.00;;;;;;;;;;4985479;28;20057;-89
2024/02/28 06:41:56;;;;;;;22.73;14.93;;;;;;;;;;4980397;28;20030;-90
2024/02/28 06:44:42;;;;;;;24.42;16.48;;;;;;;;;;4989226;28;20041;-86
2024/02/28 06:47:27;;;;;;;24.27;16.08;;;;;;;;;;4965810;28;20548;-84
2024/02/28 06:50:13;;;;;;;23.80;16.35;;;;;;;;;;4971776;28;20100;-84
2024/02/28 06:52:58;;;;;;;22.92;15.65;;;;;;;;;;4977253;28;20041;-87
2024/02/28 06:55:45;;;;;;;25.20;15.32;;;;;;;;;;4978666;28;20548;-82
2024/02/28 06:58:30;;;;;;;22.98;14.60;;;;;;;;;;4987947;28;20034;-82
2024/02/28 07:01:15;;;;;;;24.38;15.68;;;;;;;;;;5008100;28;20093;-85
2024/02/28 07:04:01;;;;;;;30.40;16.45;;;;;;;;;;4983643;28;19995;-86
2024/02/28 07:06:46;;;;;;;23.05;15.90;;;;;;;;;;4990240;28;20121;-85
2024/02/28 07:09:32;;;;;;;22.65;15.90;;;;;;;;;;4999883;28;20014;-84
2024/02/28 07:12:17;;;;;;;24.55;15.27;;;;;;;;;;4982944;23;20043;-85
2024/02/28 07:15:03;;;;;;;25.98;15.35;;;;;;;;;;4998911;28;20038;-84
2024/02/28 07:17:48;;;;;;;24.25;15.48;;;;;;;;;;4984304;28;20026;-86
2024/02/28 07:20:33;;;;;;;23.60;15.60;;;;;;;;;;4983922;28;20049;-84
2024/02/28 07:23:18;;;;;;;22.70;16.15;;;;;;;;;;4985826;28;20084;-85
2024/02/28 07:26:04;;;;;;;22.30;16.35;;;;;;;;;;4986759;28;20109;-85
2024/02/28 07:28:49;;;;;;;28.48;16.42;;;;;;;;;;4987548;28;20111;-85
2024/02/28 07:31:34;;;;;;;25.92;17.38;;;;;;;;;;4991626;28;20025;-84
2024/02/28 07:34:20;;;;;;;26.48;16.63;;;;;;;;;;4984489;28;20101;-84
2024/02/28 07:37:05;;;;;;;23.55;16.10;;;;;;;;;;4973446;28;20030;-85
2024/02/28 07:39:53;;;;;;;23.33;15.60;;;;;;;;;;4975506;28;20583;-85
2024/02/28 07:42:38;;;;;;;23.35;15.40;;;;;;;;;;4977925;28;20049;-85
2024/02/28 07:45:23;;;;;;;24.85;16.95;;;;;;;;;;4973073;28;20033;-85
2024/02/28 07:48:09;;;;;;;24.17;16.30;;;;;;;;;;4985915;28;20092;-85
2024/02/28 07:50:54;;;;;;;23.98;15.90;;;;;;;;;;4993895;28;20040;-85
2024/02/28 07:53:40;;;;;;;24.73;15.85;;;;;;;;;;4977835;28;20022;-84
2024/02/28 07:56:25;;;;;;;23.33;15.27;;;;;;;;;;4989681;28;20029;-84
2024/02/28 07:59:11;;;;;;;23.70;15.52;;;;;;;;;;4991898;28;20038;-84
2024/02/28 08:01:56;;;;;;;23.83;15.02;;;;;;;;;;4987441;28;20184;-84
2024/02/28 08:04:41;;;;;;;23.52;14.38;;;;;;;;;;4971076;28;20011;-85
2024/02/28 08:07:26;;;;;;;23.02;16.17;;;;;;;;;;4978261;28;20381;-84
2024/02/28 08:10:12;;;;;;;22.88;15.10;;;;;;;;;;4971149;28;20030;-82
2024/02/28 08:12:57;;;;;;;22.98;16.05;;;;;;;;;;4984622;28;20568;-83
2024/02/28 08:15:42;;;;;;;25.05;15.68;;;;;;;;;;4964937;28;20076;-81
2024/02/28 08:18:28;;;;;;;25.23;16.02;;;;;;;;;;4973366;28;20464;-83
2024/02/28 08:21:13;;;;;;;23.75;14.90;;;;;;;;;;4972242;28;20038;-82
2024/02/28 08:23:59;;;;;;;24.17;16.60;;;;;;;;;;4970448;28;20056;-84
2024/02/28 08:26:44;;;;;;;26.30;14.80;;;;;;;;;;4971165;28;20354;-81
2024/02/28 08:29:30;;;;;;;25.55;16.55;;;;;;;;;;4977651;28;20098;-84
2024/02/28 08:32:15;;;;;;;24.33;15.88;;;;;;;;;;4972350;28;20014;-84
2024/02/28 08:38:15;;;;;;;25.83;17.23;;;;;;;;;;4978489;28;20030;-84
2024/02/28 08:41:01;;;;;;;24.67;15.77;;;;;;;;;;4974227;28;20178;-85
2024/02/28 08:43:46;;;;;;;25.48;15.95;;;;;;;;;;4979372;28;20080;-84
2024/02/28 08:46:31;;;;;;;27.75;16.60;;;;;;;;;;4971750;28;20018;-84
2024/02/28 08:49:17;;;;;;;27.13;18.30;;;;;;;;;;4973163;28;20030;-84
2024/02/28 08:52:03;;;;;;;23.63;17.67;;;;;;;;;;4971657;28;20113;-84
2024/02/28 08:54:48;;;;;;;28.55;18.00;;;;;;;;;;4970835;28;20030;-84
2024/02/28 08:57:34;;;;;;;26.92;17.55;;;;;;;;;;4971813;28;20032;-84
2024/02/28 09:00:19;;;;;;;23.98;16.70;;;;;;;;;;4973254;28;20015;-85
2024/02/28 09:03:05;;;;;;;25.38;17.40;;;;;;;;;;4985112;28;20041;-84
2024/02/28 09:05:50;;;;;;;29.58;17.42;;;;;;;;;;4968452;28;20022;-82
2024/02/28 09:08:35;;;;;;;28.95;18.23;;;;;;;;;;4971296;28;20030;-83
2024/02/28 09:11:20;;;;;;;28.13;18.40;;;;;;;;;;4966058;28;20099;-84
2024/02/28 09:14:05;;;;;;;27.27;17.83;;;;;;;;;;4971757;28;20158;-83
2024/02/28 09:16:51;;;;;;;25.55;16.75;;;;;;;;;;4971517;28;20058;-83
2024/02/28 09:19:36;;;;;;;25.80;17.17;;;;;;;;;;4971937;28;20042;-83
2024/02/28 09:22:23;;;;;;;27.42;17.30;;;;;;;;;;4972340;28;20462;-83
2024/02/28 09:25:09;;;;;;;31.58;18.73;;;;;;;;;;4971990;28;20018;-83
2024/02/28 09:27:54;;;;;;;26.33;17.58;;;;;;;;;;4975429;28;20026;-82
2024/02/28 09:30:39;;;;;;;27.63;19.83;;;;;;;;;;4971491;28;20039;-85
2024/02/28 09:33:25;;;;;;;28.35;17.10;;;;;;;;;;4971340;28;20146;-82
2024/02/28 09:36:10;;;;;;;26.67;16.55;;;;;;;;;;4972482;28;20688;-82
2024/02/28 09:38:56;;;;;;;25.60;16.23;;;;;;;;;;4964869;28;20117;-82
2024/02/28 09:41:41;;;;;;;24.38;16.13;;;;;;;;;;4980486;28;20176;-83
2024/02/28 09:44:27;;;;;;;23.58;15.63;;;;;;;;;;4972964;28;20026;-81
2024/02/28 09:47:12;;;;;;;24.95;16.73;;;;;;;;;;4974287;28;20019;-80
2024/02/28 09:50:01;;;;;;;26.75;17.90;;;;;;;;;;4975508;28;20030;-83
2024/02/28 09:52:46;;;;;;;25.52;17.30;;;;;;;;;;4975335;28;20022;-79
2024/02/28 09:55:32;;;;;;;25.00;16.52;;;;;;;;;;4971532;28;20037;-80
2024/02/28 09:58:23;;;;;;;25.48;16.45;;;;;;;;;;4982826;28;20484;-80
2024/02/28 10:01:11;;;;;;;29.50;17.77;;;;;;;;;;4978009;28;20034;-81
2024/02/28 10:03:59;;;;;;;30.90;17.58;;;;;;;;;;4973333;28;20026;-82
2024/02/28 10:06:49;;;;;;;24.73;17.10;;;;;;;;;;4981886;28;20418;-82
2024/02/28 10:09:35;;;;;;;23.85;15.23;;;;;;;;;;4982940;28;20505;-81
2024/02/28 10:12:20;;;;;;;29.33;16.75;;;;;;;;;;4975219;28;20157;-81
2024/02/28 10:15:05;;;;;;;23.70;15.27;;;;;;;;;;4975437;28;20058;-82
2024/02/28 10:21:18;;;;;;;20.63;14.10;;;;;;;;;;4972385;28;20018;-82
2024/02/28 10:24:04;;;;;;;19.33;13.27;;;;;;;;;;4975153;28;20039;-80
2024/02/28 10:26:58;;;;;;;21.90;13.35;;;;;;;;;;4973873;28;20025;-80
2024/02/28 10:29:46;;;;;;;18.90;12.75;;;;;;;;;;4974859;28;20117;-81
2024/02/28 10:32:33;;;;;;;21.13;13.40;;;;;;;;;;4974324;28;20038;-80
2024/02/28 10:35:25;;;;;;;20.95;14.70;;;;;;;;;;4974226;28;20041;-80
2024/02/28 10:38:11;;;;;;;22.13;14.23;;;;;;;;;;4963573;28;20027;-82
2024/02/28 10:40:58;;;;;;;20.70;14.32;;;;;;;;;;4974529;28;20073;-81
2024/02/28 10:43:43;;;;;;;21.23;14.45;;;;;;;;;;4973873;28;20031;-82
2024/02/28 10:46:29;;;;;;;21.92;14.15;;;;;;;;;;4974263;28;20026;-82
2024/02/28 10:49:14;;;;;;;20.58;13.23;;;;;;;;;;4972786;28;20037;-81
2024/02/28 10:52:03;;;;;;;25.05;14.18;;;;;;;;;;4974007;28;20046;-81
2024/02/28 10:54:53;;;;;;;22.02;15.52;;;;;;;;;;4972848;28;20033;-82
2024/02/28 10:57:39;;;;;;;22.70;14.63;;;;;;;;;;4975014;28;20038;-82
2024/02/28 11:00:24;;;;;;;19.30;13.32;;;;;;;;;;4973393;28;20465;-81
2024/02/28 11:03:10;;;;;;;21.02;14.27;;;;;;;;;;4973776;28;20030;-81
2024/02/28 11:05:56;;;;;;;23.13;14.38;;;;;;;;;;4977489;28;20088;-82
2024/02/28 11:08:45;;;;;;;19.95;13.40;;;;;;;;;;4970499;28;20358;-81
2024/02/28 11:11:32;;;;;;;22.63;13.23;;;;;;;;;;4972798;28;20057;-81
2024/02/28 11:14:17;;;;;;;22.92;14.00;;;;;;;;;;4967154;28;20045;-81
2024/02/28 11:17:03;;;;;;;17.95;12.02;;;;;;;;;;4972256;28;20028;-83
2024/02/28 11:19:50;;;;;;;18.30;11.70;;;;;;;;;;4975179;28;20058;-82
2024/02/28 11:22:35;;;;;;;21.08;13.07;;;;;;;;;;4970056;28;20076;-79
2024/02/28 11:25:20;;;;;;;21.10;14.50;;;;;;;;;;4969034;28;20208;-80
2024/02/28 11:28:06;;;;;;;21.95;14.32;;;;;;;;;;4972066;28;20557;-80
2024/02/28 11:30:52;;;;;;;23.60;13.27;;;;;;;;;;4970643;28;20034;-81
2024/02/28 11:33:38;;;;;;;22.30;14.35;;;;;;;;;;4968316;28;20034;-81
2024/02/28 11:36:29;;;;;;;21.63;13.70;;;;;;;;;;4961211;28;20080;-81
2024/02/28 11:39:15;;;;;;;21.65;14.40;;;;;;;;;;4972531;28;20019;-81
2024/02/28 11:42:14;;;;;;;21.00;12.40;;;;;;;;;;4968204;28;20457;-79
2024/02/28 11:45:00;;;;;;;20.77;14.65;;;;;;;;;;4969180;28;20429;-80
2024/02/28 11:47:46;;;;;;;25.52;15.55;;;;;;;;;;4972817;28;20038;-82
2024/02/28 11:50:31;;;;;;;23.70;14.48;;;;;;;;;;4968361;28;20019;-83
2024/02/28 11:53:17;;;;;;;26.83;14.88;;;;;;;;;;4977636;28;20042;-83
2024/02/28 11:56:03;;;;;;;25.27;15.68;;;;;;;;;;4959970;28;20057;-82
2024/02/28 11:58:52;;;;;;;20.85;13.98;;;;;;;;;;4963258;28;20037;-81
2024/02/28 12:01:39;;;;;;;22.92;13.98;;;;;;;;;;4968817;28;20041;-81
2024/02/28 12:04:27;;;;;;;22.63;14.30;;;;;;;;;;4974185;28;20525;-82
2024/02/28 12:07:13;;;;;;;22.20;14.30;;;;;;;;;;4969027;28;20377;-82
2024/02/28 12:09:59;;;;;;;20.90;14.20;;;;;;;;;;4964008;28;20033;-83
2024/02/28 12:12:45;;;;;;;23.15;14.25;;;;;;;;;;4945163;28;20050;-83
2024/02/28 12:15:31;;;;;;;22.13;14.18;;;;;;;;;;4972069;28;20084;-82
2024/02/28 12:18:16;;;;;;;22.70;15.88;;;;;;;;;;4973813;28;20034;-82
2024/02/28 12:21:02;;;;;;;22.98;15.15;;;;;;;;;;4963126;28;20022;-83
2024/02/28 12:23:49;;;;;;;22.98;13.80;;;;;;;;;;4962222;28;20438;-82
2024/02/28 12:26:35;;;;;;;24.38;14.20;;;;;;;;;;4966411;28;20103;-82
2024/02/28 12:29:20;;;;;;;23.85;14.98;;;;;;;;;;4977267;28;20306;-82
2024/02/28 12:32:05;;;;;;;23.88;15.57;;;;;;;;;;4977089;28;20121;-81
2024/02/28 12:34:50;;;;;;;23.13;14.40;;;;;;;;;;4971773;28;20040;-82
2024/02/28 12:37:36;;;;;;;21.58;14.57;;;;;;;;;;4971474;28;20022;-82
2024/02/28 12:40:22;;;;;;;21.30;13.95;;;;;;;;;;4972403;28;20138;-82
2024/02/28 12:43:07;;;;;;;21.20;15.13;;;;;;;;;;4972563;28;20267;-83
2024/02/28 12:45:53;;;;;;;24.95;15.52;;;;;;;;;;4969430;28;20098;-81
2024/02/28 12:48:41;;;;;;;20.17;14.38;;;;;;;;;;4969118;28;20023;-81
2024/02/28 12:51:37;;;;;;;23.30;13.65;;;;;;;;;;4966068;28;20112;-82
2024/02/28 12:54:22;;;;;;;23.33;14.82;;;;;;;;;;4964642;28;20030;-80
2024/02/28 12:57:08;;;;;;;22.20;14.30;;;;;;;;;;4958263;28;20493;-82
2024/02/28 12:59:53;;;;;;;19.92;13.15;;;;;;;;;;4966552;28;20530;-82
2024/02/28 13:02:39;;;;;;;21.65;14.20;;;;;;;;;;4961645;28;20027;-83
2024/02/28 13:05:25;;;;;;;21.23;14.18;;;;;;;;;;4964325;28;20025;-81
2024/02/28 13:08:10;;;;;;;21.30;14.35;;;;;;;;;;4964016;28;20046;-84
2024/02/28 13:10:57;;;;;;;22.35;14.93;;;;;;;;;;4975352;28;20034;-84
2024/02/28 13:13:42;;;;;;;22.05;14.38;;;;;;;;;;4968209;28;20547;-83
2024/02/28 13:16:27;;;;;;;22.95;14.38;;;;;;;;;;4975251;28;20077;-84
2024/02/28 13:19:13;;;;;;;22.08;14.02;;;;;;;;;;4957610;28;20027;-84
2024/02/28 13:21:59;;;;;;;21.92;14.73;;;;;;;;;;4968270;28;20022;-84
2024/02/28 13:24:44;;;;;;;24.52;14.52;;;;;;;;;;4952078;28;20068;-83
2024/02/28 13:27:29;;;;;;;21.27;13.52;;;;;;;;;;4968537;28;20034;-84
2024/02/28 13:30:15;;;;;;;20.63;12.90;;;;;;;;;;4973962;28;20364;-81
2024/02/28 13:33:00;;;;;;;21.90;13.80;;;;;;;;;;4957115;28;20101;-80
2024/02/28 13:35:45;;;;;;;23.38;14.25;;;;;;;;;;4970914;28;20469;-80
2024/02/28 13:38:30;;;;;;;25.08;14.82;;;;;;;;;;4972259;28;20042;-81
2024/02/28 13:41:16;;;;;;;21.63;14.52;;;;;;;;;;4968738;28;20030;-81
2024/02/28 13:44:02;;;;;;;20.00;13.75;;;;;;;;;;4970925;28;20068;-80
2024/02/28 13:46:49;;;;;;;20.95;14.52;;;;;;;;;;4965730;28;20034;-80
2024/02/28 13:49:35;;;;;;;24.23;14.18;;;;;;;;;;4972456;28;20151;-81
2024/02/28 13:52:20;;;;;;;22.83;14.52;;;;;;;;;;4971216;28;20037;-80
2024/02/28 13:55:06;;;;;;;21.90;13.23;;;;;;;;;;4963195;28;20018;-81
2024/02/28 13:57:52;;;;;;;23.50;14.20;;;;;;;;;;4965453;28;20484;-80
2024/02/28 14:00:37;;;;;;;23.27;14.18;;;;;;;;;;4963158;28;20499;-80
2024/02/28 14:03:25;;;;;;;24.00;14.88;;;;;;;;;;4967413;28;20113;-81
2024/02/28 14:06:10;;;;;;;20.83;13.70;;;;;;;;;;4967478;28;20441;-80
2024/02/28 14:08:55;;;;;;;24.85;15.18;;;;;;;;;;4967497;28;20153;-81
2024/02/28 14:11:40;;;;;;;24.48;14.52;;;;;;;;;;4969209;28;20045;-81
2024/02/28 14:14:27;;;;;;;23.60;14.57;;;;;;;;;;4969943;28;20038;-82
2024/02/28 14:17:12;;;;;;;25.50;14.60;;;;;;;;;;4970050;28;21061;-84
2024/02/28 14:19:57;;;;;;;24.13;14.30;;;;;;;;;;4969332;28;20093;-83
2024/02/28 14:22:43;;;;;;;24.20;15.50;;;;;;;;;;4968433;28;20211;-84
2024/02/28 14:25:28;;;;;;;23.05;14.70;;;;;;;;;;4977304;28;20022;-84
2024/02/28 14:28:13;;;;;;;22.17;13.68;;;;;;;;;;4966673;28;20393;-83
2024/02/28 14:30:59;;;;;;;23.38;14.63;;;;;;;;;;4979517;28;20045;-82
2024/02/28 14:33:45;;;;;;;22.30;13.90;;;;;;;;;;4967648;28;20018;-83
2024/02/28 14:36:31;;;;;;;21.20;14.00;;;;;;;;;;4964763;28;20149;-83
2024/02/28 14:39:17;;;;;;;23.00;13.65;;;;;;;;;;4970974;28;20022;-82
2024/02/28 14:42:02;;;;;;;20.25;13.13;;;;;;;;;;4969514;28;20055;-82
2024/02/28 14:44:48;;;;;;;21.65;14.40;;;;;;;;;;4968191;28;20080;-82
2024/02/28 14:47:35;;;;;;;21.95;13.60;;;;;;;;;;4958431;28;20146;-83
2024/02/28 14:50:20;;;;;;;22.70;14.15;;;;;;;;;;4970276;28;20030;-82
2024/02/28 14:53:06;;;;;;;23.48;14.38;;;;;;;;;;4973919;28;20084;-82
2024/02/28 14:55:51;;;;;;;21.27;14.70;;;;;;;;;;4968345;28;20036;-82
2024/02/28 14:58:37;;;;;;;23.52;13.80;;;;;;;;;;4973332;28;20492;-82
2024/02/28 15:01:26;;;;;;;21.33;14.15;;;;;;;;;;4980834;28;20028;-83
2024/02/28 15:04:14;;;;;;;21.65;14.10;;;;;;;;;;4962044;28;20022;-85
2024/02/28 15:06:59;;;;;;;22.33;13.93;;;;;;;;;;4971350;28;20155;-82
2024/02/28 15:09:45;;;;;;;21.55;13.82;;;;;;;;;;4973483;28;20085;-82
2024/02/28 15:12:32;;;;;;;22.45;14.00;;;;;;;;;;4969250;28;20050;-82
2024/02/28 15:15:18;;;;;;;26.38;14.73;;;;;;;;;;4971443;28;20038;-82
2024/02/28 15:18:03;;;;;;;22.45;14.50;;;;;;;;;;4972033;28;20034;-82
2024/02/28 15:20:48;;;;;;;22.92;14.05;;;;;;;;;;4988395;28;20022;-81
2024/02/28 15:23:34;;;;;;;22.30;14.32;;;;;;;;;;4981976;28;20264;-81
2024/02/28 15:26:20;;;;;;;25.95;14.93;;;;;;;;;;4983166;28;20080;-82
2024/02/28 15:29:05;;;;;;;23.33;15.63;;;;;;;;;;5001161;28;20014;-82
2024/02/28 15:31:50;;;;;;;24.83;14.82;;;;;;;;;;4993325;28;20049;-84
2024/02/28 15:34:35;;;;;;;27.35;16.40;;;;;;;;;;4959039;28;20493;-84
2024/02/28 15:37:25;;;;;;;22.45;15.15;;;;;;;;;;4980401;28;20083;-84
2024/02/28 15:40:11;;;;;;;22.17;13.77;;;;;;;;;;4974321;28;20352;-83
2024/02/28 15:42:59;;;;;;;23.08;14.55;;;;;;;;;;4969490;28;20049;-82
2024/02/28 15:45:44;;;;;;;23.73;15.10;;;;;;;;;;4972142;28;20037;-83
2024/02/28 15:48:29;;;;;;;24.20;14.63;;;;;;;;;;4966623;28;20038;-83
2024/02/28 15:51:15;;;;;;;24.50;15.05;;;;;;;;;;4972879;28;20452;-83
2024/02/28 15:54:00;;;;;;;23.58;15.52;;;;;;;;;;4970208;28;20034;-82
2024/02/28 15:56:45;;;;;;;26.08;16.08;;;;;;;;;;4968246;28;20029;-82
2024/02/28 15:59:31;;;;;;;28.33;16.25;;;;;;;;;;4973407;28;20033;-83
2024/02/28 16:02:16;;;;;;;25.95;14.98;;;;;;;;;;4985226;28;20022;-82
2024/02/28 16:05:01;;;;;;;26.88;14.98;;;;;;;;;;4971032;28;20486;-82
2024/02/28 16:07:46;;;;;;;22.48;13.52;;;;;;;;;;4967190;28;20059;-81
2024/02/28 16:10:31;;;;;;;29.63;15.85;;;;;;;;;;4959302;28;20030;-82